Time;durP1;ratioP1;P1;durP2;ratioP2;P2;SDS_P1;SDS_P2;PMS_P1;PMS_P2;Temp;Humidity;BMP_temperature;BMP_pressure;BME280_temperature;BME280_humidity;BME280_pressure;Samples;Min_cycle;Max_cycle;Signal;HPM_P1;HPM_P2
2023/11/14 00:01:54;;;;;;;1999.90;999.90;;;;;;;;;;5060148;28;20048;-86
2023/11/14 00:04:21;;;;;;;1999.90;999.90;;;;;;;;;;5058777;28;20052;-86
2023/11/14 00:06:48;;;;;;;1999.90;999.90;;;;;;;;;;5057925;28;20052;-86
2023/11/14 00:09:14;;;;;;;1999.90;999.90;;;;;;;;;;5058776;28;20059;-92
2023/11/14 00:11:43;;;;;;;1999.90;999.90;;;;;;;;;;5058133;28;20044;-87
2023/11/14 00:14:09;;;;;;;1999.90;999.90;;;;;;;;;;5060054;28;20053;-86
2023/11/14 00:16:36;;;;;;;1999.90;999.90;;;;;;;;;;5058260;28;20045;-86
2023/11/14 00:19:03;;;;;;;1999.90;999.90;;;;;;;;;;5060520;28;20549;-89
2023/11/14 00:21:30;;;;;;;1999.90;999.90;;;;;;;;;;5060490;28;20075;-91
2023/11/14 00:23:55;;;;;;;1999.90;999.90;;;;;;;;;;5059775;28;20047;-89
2023/11/14 00:26:22;;;;;;;1999.90;999.90;;;;;;;;;;5058527;28;20044;-88
2023/11/14 00:28:50;;;;;;;1999.90;999.90;;;;;;;;;;5057043;28;20071;-89
2023/11/14 00:31:17;;;;;;;1999.90;999.90;;;;;;;;;;5063680;28;20194;-92
2023/11/14 00:33:43;;;;;;;1999.90;999.90;;;;;;;;;;5059926;28;20060;-89
2023/11/14 00:36:10;;;;;;;1999.90;999.90;;;;;;;;;;5058388;28;20098;-90
2023/11/14 00:38:37;;;;;;;1999.90;999.90;;;;;;;;;;5057711;28;20063;-88
2023/11/14 00:41:04;;;;;;;1999.90;999.90;;;;;;;;;;5058331;28;20075;-90
2023/11/14 00:43:30;;;;;;;1999.90;999.90;;;;;;;;;;5050526;28;20128;-88
2023/11/14 00:45:58;;;;;;;1999.90;999.90;;;;;;;;;;5051384;28;20045;-88
2023/11/14 00:48:25;;;;;;;1999.90;999.90;;;;;;;;;;5058149;28;20059;-89
2023/11/14 00:50:51;;;;;;;1999.90;999.90;;;;;;;;;;5059261;28;20051;-91
2023/11/14 00:53:18;;;;;;;1999.90;999.90;;;;;;;;;;5058256;28;20139;-90
2023/11/14 00:55:46;;;;;;;1999.90;999.90;;;;;;;;;;5058488;28;20159;-90
2023/11/14 00:58:12;;;;;;;1999.90;999.90;;;;;;;;;;5058713;28;20147;-88
2023/11/14 01:00:38;;;;;;;1999.90;999.90;;;;;;;;;;5057793;28;20123;-88
2023/11/14 01:03:06;;;;;;;1999.90;999.90;;;;;;;;;;5057317;28;20144;-89
2023/11/14 01:05:32;;;;;;;1999.90;999.90;;;;;;;;;;5056602;28;20377;-87
2023/11/14 01:07:59;;;;;;;1999.90;999.90;;;;;;;;;;5058439;28;20046;-90
2023/11/14 01:10:25;;;;;;;1999.90;999.90;;;;;;;;;;5056840;28;20063;-88
2023/11/14 01:12:52;;;;;;;1999.90;999.90;;;;;;;;;;5065146;28;20135;-91
2023/11/14 01:15:19;;;;;;;1999.90;999.90;;;;;;;;;;5061579;28;20052;-90
2023/11/14 01:17:45;;;;;;;1999.90;999.90;;;;;;;;;;5061991;28;20036;-90
2023/11/14 01:20:13;;;;;;;1999.90;999.90;;;;;;;;;;5063190;28;20052;-90
2023/11/14 01:22:40;;;;;;;1999.90;999.90;;;;;;;;;;5061974;28;20409;-89
2023/11/14 01:25:08;;;;;;;1999.90;999.90;;;;;;;;;;5064740;28;20627;-90
2023/11/14 01:27:34;;;;;;;1999.90;999.90;;;;;;;;;;5062816;28;20053;-89
2023/11/14 01:30:02;;;;;;;1999.90;999.90;;;;;;;;;;5059620;28;20053;-89
2023/11/14 01:32:28;;;;;;;1999.90;999.90;;;;;;;;;;5062095;28;20450;-91
2023/11/14 01:34:55;;;;;;;1999.90;999.90;;;;;;;;;;5059876;28;20073;-90
2023/11/14 01:37:23;;;;;;;1999.90;999.90;;;;;;;;;;5061966;28;20045;-89
2023/11/14 01:39:49;;;;;;;1999.90;999.90;;;;;;;;;;5059442;28;20365;-91
2023/11/14 01:42:16;;;;;;;1999.90;999.90;;;;;;;;;;5057051;28;20048;-92
2023/11/14 01:44:42;;;;;;;1999.90;999.90;;;;;;;;;;5060626;28;20052;-91
2023/11/14 01:47:09;;;;;;;1999.90;999.90;;;;;;;;;;5060161;28;20049;-89
2023/11/14 01:49:37;;;;;;;1999.90;999.90;;;;;;;;;;5056191;28;20056;-89
2023/11/14 01:52:04;;;;;;;1999.90;999.90;;;;;;;;;;5057041;28;20052;-90
2023/11/14 01:54:31;;;;;;;1999.90;999.90;;;;;;;;;;5061310;28;20055;-88
2023/11/14 01:56:58;;;;;;;1999.90;999.90;;;;;;;;;;5059875;28;20049;-89
2023/11/14 01:59:25;;;;;;;1999.90;999.90;;;;;;;;;;5059147;28;20041;-89
2023/11/14 02:01:52;;;;;;;1999.90;999.90;;;;;;;;;;5058041;28;20053;-88
2023/11/14 02:04:22;;;;;;;1999.90;999.90;;;;;;;;;;5055651;28;20063;-91
2023/11/14 02:06:48;;;;;;;1999.90;999.90;;;;;;;;;;5055567;28;20049;-88
2023/11/14 02:09:15;;;;;;;1999.90;999.90;;;;;;;;;;5059725;28;20368;-89
2023/11/14 02:11:44;;;;;;;1999.90;999.90;;;;;;;;;;5059851;28;20075;-87
2023/11/14 02:14:11;;;;;;;1999.90;999.90;;;;;;;;;;5059612;28;20409;-88
2023/11/14 02:16:45;;;;;;;1999.90;999.90;;;;;;;;;;5062731;28;20044;-88
2023/11/14 02:19:12;;;;;;;1999.90;999.90;;;;;;;;;;5064465;28;20041;-88
2023/11/14 02:21:38;;;;;;;1999.90;999.90;;;;;;;;;;5063318;28;20041;-89
2023/11/14 02:24:06;;;;;;;1999.90;999.90;;;;;;;;;;5064868;28;20056;-89
2023/11/14 02:26:34;;;;;;;1999.90;999.90;;;;;;;;;;5063677;28;20055;-89
2023/11/14 02:29:01;;;;;;;1999.90;999.90;;;;;;;;;;5058538;28;20060;-88
2023/11/14 02:31:29;;;;;;;1999.90;999.90;;;;;;;;;;5061757;28;20048;-89
2023/11/14 02:33:55;;;;;;;1999.90;999.90;;;;;;;;;;5063512;28;20056;-88
2023/11/14 02:36:23;;;;;;;1999.90;999.90;;;;;;;;;;5058554;28;20463;-89
2023/11/14 02:38:49;;;;;;;1999.90;999.90;;;;;;;;;;5062676;28;20082;-88
2023/11/14 02:41:16;;;;;;;1999.90;999.90;;;;;;;;;;5062953;28;20044;-88
2023/11/14 02:43:44;;;;;;;1999.90;999.90;;;;;;;;;;5066555;28;20493;-88
2023/11/14 02:46:10;;;;;;;1999.90;999.90;;;;;;;;;;5062862;28;20052;-89
2023/11/14 02:48:37;;;;;;;1999.90;999.90;;;;;;;;;;5058729;28;20051;-88
2023/11/14 02:51:04;;;;;;;1999.90;999.90;;;;;;;;;;5062152;28;20507;-88
2023/11/14 02:53:31;;;;;;;1999.90;999.90;;;;;;;;;;5060807;28;20484;-88
2023/11/14 02:55:58;;;;;;;1999.90;999.90;;;;;;;;;;5055619;28;20505;-89
2023/11/14 02:58:24;;;;;;;1999.90;999.90;;;;;;;;;;5057163;28;20043;-88
2023/11/14 03:00:52;;;;;;;1999.90;999.90;;;;;;;;;;5060086;28;20496;-87
2023/11/14 03:03:19;;;;;;;1999.90;999.90;;;;;;;;;;5059094;28;20048;-87
2023/11/14 03:05:46;;;;;;;1999.90;999.90;;;;;;;;;;5056506;28;20052;-86
2023/11/14 03:08:12;;;;;;;1999.90;999.90;;;;;;;;;;5062232;28;20057;-88
2023/11/14 03:10:39;;;;;;;1999.90;999.90;;;;;;;;;;5058307;28;20077;-89
2023/11/14 03:13:06;;;;;;;1999.90;999.90;;;;;;;;;;5061532;28;20765;-88
2023/11/14 03:15:33;;;;;;;1999.90;999.90;;;;;;;;;;5056832;28;20057;-88
2023/11/14 03:18:01;;;;;;;1999.90;999.90;;;;;;;;;;5060103;28;20044;-87
2023/11/14 03:20:28;;;;;;;1999.90;999.90;;;;;;;;;;5059834;28;20141;-88
2023/11/14 03:22:55;;;;;;;1999.90;999.90;;;;;;;;;;5060842;28;20123;-88
2023/11/14 03:25:22;;;;;;;1999.90;999.90;;;;;;;;;;5064143;28;20055;-90
2023/11/14 03:27:49;;;;;;;1999.90;999.90;;;;;;;;;;5065686;28;20436;-89
2023/11/14 03:30:16;;;;;;;1999.90;999.90;;;;;;;;;;5064113;28;20055;-88
2023/11/14 03:32:42;;;;;;;1999.90;999.90;;;;;;;;;;5064582;28;20040;-88
2023/11/14 03:35:10;;;;;;;1999.90;999.90;;;;;;;;;;5066689;28;20409;-89
2023/11/14 03:37:38;;;;;;;1999.90;999.90;;;;;;;;;;5063511;28;20470;-89
2023/11/14 03:40:05;;;;;;;1999.90;999.90;;;;;;;;;;5063114;28;20084;-88
2023/11/14 03:42:33;;;;;;;1999.90;999.90;;;;;;;;;;5061072;28;20489;-88
2023/11/14 03:44:59;;;;;;;1999.90;999.90;;;;;;;;;;5061724;28;20049;-89
2023/11/14 03:47:26;;;;;;;1999.90;999.90;;;;;;;;;;5061636;28;20056;-88
2023/11/14 03:49:52;;;;;;;1999.90;999.90;;;;;;;;;;5061189;28;20462;-88
2023/11/14 03:52:20;;;;;;;1999.90;999.90;;;;;;;;;;5064827;28;20053;-87
2023/11/14 03:54:47;;;;;;;1999.90;999.90;;;;;;;;;;5060224;28;20413;-89
2023/11/14 03:57:13;;;;;;;1999.90;999.90;;;;;;;;;;5062511;28;20049;-87
2023/11/14 03:59:40;;;;;;;1999.90;999.90;;;;;;;;;;5061965;28;20075;-87
2023/11/14 04:02:07;;;;;;;1999.90;999.90;;;;;;;;;;5059006;28;20044;-87
2023/11/14 04:04:34;;;;;;;1999.90;999.90;;;;;;;;;;5057462;28;20129;-88
2023/11/14 04:07:00;;;;;;;1999.90;999.90;;;;;;;;;;5061143;28;20041;-88
2023/11/14 04:09:28;;;;;;;1999.90;999.90;;;;;;;;;;5059374;28;20060;-88
2023/11/14 04:11:55;;;;;;;1999.90;999.90;;;;;;;;;;5057078;28;20052;-88
2023/11/14 04:14:21;;;;;;;1999.90;999.90;;;;;;;;;;5060682;28;20037;-88
2023/11/14 04:16:48;;;;;;;1999.90;999.90;;;;;;;;;;5058005;28;20040;-88
2023/11/14 04:19:14;;;;;;;1999.90;999.90;;;;;;;;;;5063301;28;20045;-88
2023/11/14 04:21:41;;;;;;;1999.90;999.90;;;;;;;;;;5058529;28;20500;-88
2023/11/14 04:24:09;;;;;;;1999.90;999.90;;;;;;;;;;5058153;28;20045;-88
2023/11/14 04:26:37;;;;;;;1999.90;999.90;;;;;;;;;;5060316;28;20045;-88
2023/11/14 04:29:04;;;;;;;1999.90;999.90;;;;;;;;;;5056026;28;20064;-88
2023/11/14 04:31:30;;;;;;;1999.90;999.90;;;;;;;;;;5058864;28;20045;-89
2023/11/14 04:33:57;;;;;;;1999.90;999.90;;;;;;;;;;5056785;28;20040;-89
2023/11/14 04:36:23;;;;;;;1999.90;999.90;;;;;;;;;;5059323;28;20053;-90
2023/11/14 04:38:50;;;;;;;1999.90;999.90;;;;;;;;;;5058673;28;20045;-89
2023/11/14 04:41:17;;;;;;;1999.90;999.90;;;;;;;;;;5059303;28;20056;-89
2023/11/14 04:43:45;;;;;;;1999.90;999.90;;;;;;;;;;5059092;28;20041;-88
2023/11/14 04:46:12;;;;;;;1999.90;999.90;;;;;;;;;;5056210;28;20076;-89
2023/11/14 04:48:38;;;;;;;1999.90;999.90;;;;;;;;;;5057610;28;20481;-91
2023/11/14 04:51:05;;;;;;;1999.90;999.90;;;;;;;;;;5057951;28;20063;-90
2023/11/14 04:53:32;;;;;;;1999.90;999.90;;;;;;;;;;5059413;28;20044;-90
2023/11/14 04:55:58;;;;;;;1999.90;999.90;;;;;;;;;;5059102;28;20056;-89
2023/11/14 04:58:25;;;;;;;1999.90;999.90;;;;;;;;;;5059357;28;20074;-89
2023/11/14 05:00:53;;;;;;;1999.90;999.90;;;;;;;;;;5059272;28;20045;-89
2023/11/14 05:03:19;;;;;;;1999.90;999.90;;;;;;;;;;5059745;28;20052;-90
2023/11/14 05:05:46;;;;;;;1999.90;999.90;;;;;;;;;;5058398;28;20054;-88
2023/11/14 05:08:12;;;;;;;1999.90;999.90;;;;;;;;;;5059011;28;20048;-89
2023/11/14 05:10:39;;;;;;;1999.90;999.90;;;;;;;;;;5046226;28;20056;-92
2023/11/14 05:13:05;;;;;;;1999.90;999.90;;;;;;;;;;5060643;28;20065;-90
2023/11/14 05:15:32;;;;;;;1999.90;999.90;;;;;;;;;;5059178;28;20132;-89
2023/11/14 05:18:00;;;;;;;1999.90;999.90;;;;;;;;;;5059195;28;20508;-91
2023/11/14 05:20:27;;;;;;;1999.90;999.90;;;;;;;;;;5059233;28;20077;-91
2023/11/14 05:22:53;;;;;;;1999.90;999.90;;;;;;;;;;5060473;28;20104;-94
2023/11/14 05:25:20;;;;;;;1999.90;999.90;;;;;;;;;;5058475;28;20501;-91
2023/11/14 05:27:47;;;;;;;1999.90;999.90;;;;;;;;;;5058811;28;20414;-91
2023/11/14 05:30:13;;;;;;;1999.90;999.90;;;;;;;;;;5058892;28;20040;-91
2023/11/14 05:32:40;;;;;;;1999.90;999.90;;;;;;;;;;5061118;28;20052;-90
2023/11/14 05:35:09;;;;;;;1999.90;999.90;;;;;;;;;;5069953;28;20056;-91
2023/11/14 05:37:36;;;;;;;1999.90;999.90;;;;;;;;;;5075259;28;20043;-91
2023/11/14 05:40:03;;;;;;;1999.90;999.90;;;;;;;;;;5069342;28;20045;-90
2023/11/14 05:42:29;;;;;;;1999.90;999.90;;;;;;;;;;5068670;28;20053;-92
2023/11/14 05:44:56;;;;;;;1999.90;999.90;;;;;;;;;;5070904;28;20044;-90
2023/11/14 05:47:23;;;;;;;1999.90;999.90;;;;;;;;;;5075768;28;20125;-92
2023/11/14 05:49:49;;;;;;;1999.90;999.90;;;;;;;;;;5075376;28;20049;-92
2023/11/14 05:52:17;;;;;;;1999.90;999.90;;;;;;;;;;5081859;28;20516;-90
2023/11/14 05:54:44;;;;;;;1999.90;999.90;;;;;;;;;;5072372;28;20058;-93
2023/11/14 05:57:11;;;;;;;1999.90;999.90;;;;;;;;;;5077688;28;20049;-92
2023/11/14 05:59:38;;;;;;;1999.90;999.90;;;;;;;;;;5079279;28;20083;-90
2023/11/14 06:02:06;;;;;;;1999.90;999.90;;;;;;;;;;5079973;28;20068;-91
2023/11/14 06:04:33;;;;;;;1999.90;999.90;;;;;;;;;;5072294;28;20056;-93
2023/11/14 06:07:00;;;;;;;1999.90;999.90;;;;;;;;;;5080039;28;20101;-90
2023/11/14 06:09:29;;;;;;;1999.90;999.90;;;;;;;;;;5077448;28;20108;-92
2023/11/14 06:11:56;;;;;;;1999.90;999.90;;;;;;;;;;5078443;28;20047;-92
2023/11/14 06:14:23;;;;;;;1999.90;999.90;;;;;;;;;;5075391;28;20048;-91
2023/11/14 06:16:50;;;;;;;1999.90;999.90;;;;;;;;;;5070216;28;20079;-88
2023/11/14 06:19:17;;;;;;;1999.90;999.90;;;;;;;;;;5076330;28;20131;-89
2023/11/14 06:21:44;;;;;;;1999.90;999.90;;;;;;;;;;5073839;28;20131;-91
2023/11/14 06:24:10;;;;;;;1999.90;999.90;;;;;;;;;;5072427;28;20080;-88
2023/11/14 06:26:39;;;;;;;1999.90;999.90;;;;;;;;;;5067544;28;20135;-89
2023/11/14 06:29:06;;;;;;;1999.90;999.90;;;;;;;;;;5075744;28;20060;-88
2023/11/14 06:31:32;;;;;;;1999.90;999.90;;;;;;;;;;5069188;28;20079;-89
2023/11/14 06:33:59;;;;;;;1999.90;999.90;;;;;;;;;;5071901;28;20055;-89
2023/11/14 06:36:26;;;;;;;1999.90;999.90;;;;;;;;;;5073443;28;20059;-87
2023/11/14 06:38:53;;;;;;;1999.90;999.90;;;;;;;;;;5075972;28;20129;-88
2023/11/14 06:41:20;;;;;;;1999.90;999.90;;;;;;;;;;5070827;28;20082;-88
2023/11/14 06:43:48;;;;;;;1999.90;999.90;;;;;;;;;;5063602;28;20127;-89
2023/11/14 06:46:14;;;;;;;1999.90;999.90;;;;;;;;;;5068874;28;20056;-87
2023/11/14 06:48:41;;;;;;;1999.90;999.90;;;;;;;;;;5061108;28;20057;-89
2023/11/14 06:51:08;;;;;;;1999.90;999.90;;;;;;;;;;5065278;28;20068;-87
2023/11/14 06:53:34;;;;;;;1999.90;999.90;;;;;;;;;;5069828;28;20055;-88
2023/11/14 06:56:02;;;;;;;1999.90;999.90;;;;;;;;;;5072942;28;20053;-88
2023/11/14 06:58:28;;;;;;;1999.90;999.90;;;;;;;;;;5074151;28;20111;-92
2023/11/14 07:00:56;;;;;;;1999.90;999.90;;;;;;;;;;5069774;28;20052;-90
2023/11/14 07:03:23;;;;;;;1999.90;999.90;;;;;;;;;;5065623;28;20303;-91
2023/11/14 07:05:49;;;;;;;1999.90;999.90;;;;;;;;;;5072744;28;20055;-92
2023/11/14 07:08:16;;;;;;;1999.90;999.90;;;;;;;;;;5070211;28;20586;-88
2023/11/14 07:10:43;;;;;;;1999.90;999.90;;;;;;;;;;5067508;28;20071;-92
2023/11/14 07:13:09;;;;;;;1999.90;999.90;;;;;;;;;;5065662;28;20370;-89
2023/11/14 07:15:36;;;;;;;1999.90;999.90;;;;;;;;;;5061787;28;20049;-91
2023/11/14 07:18:08;;;;;;;1999.90;999.90;;;;;;;;;;5065555;28;20048;-91
2023/11/14 07:20:34;;;;;;;1999.90;999.90;;;;;;;;;;5068331;28;20503;-90
2023/11/14 07:23:01;;;;;;;1999.90;999.90;;;;;;;;;;5063381;28;20051;-89
2023/11/14 07:25:29;;;;;;;1999.90;999.90;;;;;;;;;;5067810;28;20049;-90
2023/11/14 07:27:55;;;;;;;1999.90;999.90;;;;;;;;;;5065101;28;20455;-90
2023/11/14 07:30:22;;;;;;;1999.90;999.90;;;;;;;;;;5065126;28;20057;-91
2023/11/14 07:32:49;;;;;;;1999.90;999.90;;;;;;;;;;5065036;28;20041;-93
2023/11/14 07:35:21;;;;;;;1999.90;999.90;;;;;;;;;;5062543;28;20059;-91
2023/11/14 07:37:47;;;;;;;1999.90;999.90;;;;;;;;;;5067218;28;20049;-90
2023/11/14 07:40:14;;;;;;;1999.90;999.90;;;;;;;;;;5069630;28;20050;-91
2023/11/14 07:42:40;;;;;;;1999.90;999.90;;;;;;;;;;5061962;28;20131;-91
2023/11/14 07:45:09;;;;;;;1999.90;999.90;;;;;;;;;;5065386;28;20056;-92
2023/11/14 07:47:35;;;;;;;1999.90;999.90;;;;;;;;;;5064389;28;20051;-88
2023/11/14 07:50:02;;;;;;;1999.90;999.90;;;;;;;;;;5061619;28;20052;-90
2023/11/14 07:52:30;;;;;;;1999.90;999.90;;;;;;;;;;5059855;28;20061;-89
2023/11/14 07:54:58;;;;;;;1999.90;999.90;;;;;;;;;;5059416;28;20044;-88
2023/11/14 07:57:25;;;;;;;1999.90;999.90;;;;;;;;;;5070742;28;20049;-90
2023/11/14 07:59:51;;;;;;;1999.90;999.90;;;;;;;;;;5067892;28;20049;-89
2023/11/14 08:02:18;;;;;;;1999.90;999.90;;;;;;;;;;5070443;28;20048;-89
2023/11/14 08:04:45;;;;;;;1999.90;999.90;;;;;;;;;;5063888;28;20148;-92
2023/11/14 08:07:11;;;;;;;1999.90;999.90;;;;;;;;;;5061126;28;20051;-91
2023/11/14 08:09:39;;;;;;;1999.90;999.90;;;;;;;;;;5051663;28;20048;-91
2023/11/14 08:12:07;;;;;;;1999.90;999.90;;;;;;;;;;5067345;28;20185;-91
2023/11/14 08:14:34;;;;;;;1999.90;999.90;;;;;;;;;;5069321;28;20043;-88
2023/11/14 08:17:00;;;;;;;1999.90;999.90;;;;;;;;;;5067907;28;20416;-92
2023/11/14 08:19:27;;;;;;;1999.90;999.90;;;;;;;;;;5071303;28;20452;-91
2023/11/14 08:21:55;;;;;;;1999.90;999.90;;;;;;;;;;5064686;28;20063;-88
2023/11/14 08:24:21;;;;;;;1999.90;999.90;;;;;;;;;;5059052;28;20468;-90
2023/11/14 08:26:50;;;;;;;1999.90;999.90;;;;;;;;;;5063164;28;20055;-90
2023/11/14 08:29:17;;;;;;;1999.90;999.90;;;;;;;;;;5065213;28;20064;-90
2023/11/14 08:31:43;;;;;;;1999.90;999.90;;;;;;;;;;5062030;28;20052;-91
2023/11/14 08:34:10;;;;;;;1999.90;999.90;;;;;;;;;;5062760;28;20052;-89
2023/11/14 08:36:37;;;;;;;1999.90;999.90;;;;;;;;;;5060567;28;20052;-92
2023/11/14 08:39:04;;;;;;;1999.90;999.90;;;;;;;;;;5060983;28;20056;-91
2023/11/14 08:41:30;;;;;;;1999.90;999.90;;;;;;;;;;5062709;28;20049;-91
2023/11/14 08:43:58;;;;;;;1999.90;999.90;;;;;;;;;;5064217;28;20054;-90
2023/11/14 08:46:25;;;;;;;1999.90;999.90;;;;;;;;;;5062099;28;20059;-91
2023/11/14 08:48:52;;;;;;;1999.90;999.90;;;;;;;;;;5065380;28;20157;-92
2023/11/14 08:51:20;;;;;;;1999.90;999.90;;;;;;;;;;5066745;28;20088;-89
2023/11/14 08:53:46;;;;;;;1999.90;999.90;;;;;;;;;;5064718;28;20733;-89
2023/11/14 08:56:13;;;;;;;1999.90;999.90;;;;;;;;;;5062434;28;20049;-89
2023/11/14 08:58:40;;;;;;;1999.90;999.90;;;;;;;;;;5060204;28;20059;-92
2023/11/14 09:01:08;;;;;;;1999.90;999.90;;;;;;;;;;5059622;28;20508;-90
2023/11/14 09:03:34;;;;;;;1999.90;999.90;;;;;;;;;;5064944;28;20139;-92
2023/11/14 09:06:01;;;;;;;1999.90;999.90;;;;;;;;;;5066184;28;20044;-90
2023/11/14 09:08:28;;;;;;;1999.90;999.90;;;;;;;;;;5064068;28;20120;-93
2023/11/14 09:10:54;;;;;;;1999.90;999.90;;;;;;;;;;5067181;28;20098;-93
2023/11/14 09:13:21;;;;;;;1999.90;999.90;;;;;;;;;;5066827;28;20055;-88
2023/11/14 09:15:48;;;;;;;1999.90;999.90;;;;;;;;;;5064056;28;20047;-90
2023/11/14 09:18:16;;;;;;;1999.90;999.90;;;;;;;;;;5060045;28;20052;-92
2023/11/14 09:20:43;;;;;;;1999.90;999.90;;;;;;;;;;5062517;28;20077;-92
2023/11/14 09:23:10;;;;;;;1999.90;999.90;;;;;;;;;;5058946;28;20061;-88
2023/11/14 09:25:36;;;;;;;1999.90;999.90;;;;;;;;;;5059082;28;20048;-89
2023/11/14 09:28:03;;;;;;;1999.90;999.90;;;;;;;;;;5058811;28;20068;-90
2023/11/14 09:30:29;;;;;;;1999.90;999.90;;;;;;;;;;5060906;28;20489;-89
2023/11/14 09:32:56;;;;;;;1999.90;999.90;;;;;;;;;;5062281;28;20408;-90
2023/11/14 09:35:24;;;;;;;1999.90;999.90;;;;;;;;;;5055180;28;20061;-91
2023/11/14 09:37:50;;;;;;;1999.90;999.90;;;;;;;;;;5059059;28;20071;-90
2023/11/14 09:40:21;;;;;;;1999.90;999.90;;;;;;;;;;5059450;28;20049;-88
2023/11/14 09:42:48;;;;;;;1999.90;999.90;;;;;;;;;;5058058;28;20049;-91
2023/11/14 09:45:15;;;;;;;1999.90;999.90;;;;;;;;;;5059414;28;20049;-89
2023/11/14 09:47:41;;;;;;;1999.90;999.90;;;;;;;;;;5064555;28;20052;-91
2023/11/14 09:50:09;;;;;;;1999.90;999.90;;;;;;;;;;5066021;28;20545;-88
2023/11/14 09:52:37;;;;;;;1999.90;999.90;;;;;;;;;;5070038;28;20055;-88
2023/11/14 09:55:06;;;;;;;1999.90;999.90;;;;;;;;;;5068093;28;20068;-90
2023/11/14 09:57:33;;;;;;;1999.90;999.90;;;;;;;;;;5075241;28;20120;-89
2023/11/14 10:00:01;;;;;;;1999.90;999.90;;;;;;;;;;5079316;28;20056;-89
2023/11/14 10:02:27;;;;;;;1999.90;999.90;;;;;;;;;;5078252;28;20060;-92
2023/11/14 10:04:54;;;;;;;1999.90;999.90;;;;;;;;;;5077281;28;20076;-92
2023/11/14 10:07:22;;;;;;;1999.90;999.90;;;;;;;;;;5070383;28;20473;-90
2023/11/14 10:09:51;;;;;;;1999.90;999.90;;;;;;;;;;5072655;28;20041;-87
2023/11/14 10:12:32;;;;;;;1999.90;999.90;;;;;;;;;;5061712;28;20049;-88
2023/11/14 10:14:59;;;;;;;1999.90;999.90;;;;;;;;;;5060499;28;20425;-90
2023/11/14 10:17:29;;;;;;;1999.90;999.90;;;;;;;;;;5057850;28;20087;-88
2023/11/14 10:20:00;;;;;;;1999.90;999.90;;;;;;;;;;5059457;28;20053;-90
2023/11/14 10:22:28;;;;;;;1999.90;999.90;;;;;;;;;;5057575;28;20045;-88
2023/11/14 10:24:56;;;;;;;1999.90;999.90;;;;;;;;;;5058216;28;20802;-90
2023/11/14 10:27:29;;;;;;;1999.90;999.90;;;;;;;;;;5060905;28;20036;-88
2023/11/14 10:29:56;;;;;;;1999.90;999.90;;;;;;;;;;5056784;28;20045;-87
2023/11/14 10:32:23;;;;;;;1999.90;999.90;;;;;;;;;;5062824;28;20135;-89
2023/11/14 10:34:51;;;;;;;1999.90;999.90;;;;;;;;;;5057735;28;20139;-89
2023/11/14 10:37:29;;;;;;;1999.90;999.90;;;;;;;;;;5063649;28;20139;-88
2023/11/14 10:39:58;;;;;;;1999.90;999.90;;;;;;;;;;5073926;28;20052;-89
2023/11/14 10:42:26;;;;;;;1999.90;999.90;;;;;;;;;;5070500;28;20053;-89
2023/11/14 10:44:59;;;;;;;1999.90;999.90;;;;;;;;;;5071421;28;20049;-89
2023/11/14 10:47:38;;;;;;;1999.90;999.90;;;;;;;;;;5063094;28;20068;-90
2023/11/14 10:50:05;;;;;;;1999.90;999.90;;;;;;;;;;5067842;28;20056;-89
2023/11/14 10:52:33;;;;;;;1999.90;999.90;;;;;;;;;;5069071;28;20068;-91
2023/11/14 10:55:02;;;;;;;1999.90;999.90;;;;;;;;;;5068372;28;20141;-89
2023/11/14 10:57:30;;;;;;;1999.90;999.90;;;;;;;;;;5066411;28;20045;-89
2023/11/14 10:59:58;;;;;;;1999.90;999.90;;;;;;;;;;5068878;28;20060;-89
2023/11/14 11:02:32;;;;;;;1999.90;999.90;;;;;;;;;;5072003;28;20052;-87
2023/11/14 11:05:01;;;;;;;1999.90;999.90;;;;;;;;;;5065713;28;20176;-92
2023/11/14 11:07:28;;;;;;;1999.90;999.90;;;;;;;;;;5068115;28;20048;-88
2023/11/14 11:09:55;;;;;;;1999.90;999.90;;;;;;;;;;5064504;28;20045;-86
2023/11/14 11:12:24;;;;;;;1999.90;999.90;;;;;;;;;;5064439;28;20151;-89
2023/11/14 11:14:51;;;;;;;1999.90;999.90;;;;;;;;;;5070479;28;20048;-90
2023/11/14 11:17:39;;;;;;;1999.90;999.90;;;;;;;;;;5063350;28;20044;-89
2023/11/14 11:20:08;;;;;;;1999.90;999.90;;;;;;;;;;5068491;28;20048;-87
2023/11/14 11:23:03;;;;;;;1999.90;999.90;;;;;;;;;;5073620;28;20051;-87
2023/11/14 11:25:31;;;;;;;1999.90;999.90;;;;;;;;;;5068537;28;20053;-86
2023/11/14 11:27:59;;;;;;;1999.90;999.90;;;;;;;;;;5077128;28;20071;-88
2023/11/14 11:30:26;;;;;;;1999.90;999.90;;;;;;;;;;5073960;28;20040;-89
2023/11/14 11:32:55;;;;;;;1999.90;999.90;;;;;;;;;;5069479;28;20060;-90
2023/11/14 11:35:28;;;;;;;1999.90;999.90;;;;;;;;;;5060494;28;20045;-91
2023/11/14 11:37:58;;;;;;;1999.90;999.90;;;;;;;;;;5059907;28;20058;-89
2023/11/14 11:40:26;;;;;;;1999.90;999.90;;;;;;;;;;5061607;28;20492;-88
2023/11/14 11:42:55;;;;;;;1999.90;999.90;;;;;;;;;;5055593;28;20041;-89
2023/11/14 11:45:37;;;;;;;1999.90;999.90;;;;;;;;;;5064438;28;20048;-91
2023/11/14 11:48:04;;;;;;;1999.90;999.90;;;;;;;;;;5054598;28;20052;-89
2023/11/14 11:50:32;;;;;;;1999.90;999.90;;;;;;;;;;5061230;28;20056;-90
2023/11/14 11:53:04;;;;;;;1999.90;999.90;;;;;;;;;;5065077;28;20048;-87
2023/11/14 11:55:30;;;;;;;1999.90;999.90;;;;;;;;;;5068990;28;20064;-87
2023/11/14 11:58:02;;;;;;;1999.90;999.90;;;;;;;;;;5075254;28;20050;-90
2023/11/14 12:00:29;;;;;;;1999.90;999.90;;;;;;;;;;5073399;28;20059;-90
2023/11/14 12:02:59;;;;;;;1999.90;999.90;;;;;;;;;;5086734;28;20056;-87
2023/11/14 12:05:27;;;;;;;1999.90;999.90;;;;;;;;;;5078472;28;20049;-87
2023/11/14 12:07:54;;;;;;;1999.90;999.90;;;;;;;;;;5080518;28;20056;-89
2023/11/14 12:10:21;;;;;;;1999.90;999.90;;;;;;;;;;5061522;28;20116;-87
2023/11/14 12:12:52;;;;;;;1999.90;999.90;;;;;;;;;;5076136;28;20076;-88
2023/11/14 12:15:20;;;;;;;1999.90;999.90;;;;;;;;;;5075697;28;20108;-88
2023/11/14 12:17:51;;;;;;;1999.90;999.90;;;;;;;;;;5086539;28;20056;-88
2023/11/14 12:20:20;;;;;;;1999.90;999.90;;;;;;;;;;5082758;28;20037;-88
2023/11/14 12:22:49;;;;;;;1999.90;999.90;;;;;;;;;;5075625;28;20052;-88
2023/11/14 12:25:16;;;;;;;1999.90;999.90;;;;;;;;;;5087403;28;20063;-86
2023/11/14 12:27:49;;;;;;;1999.90;999.90;;;;;;;;;;5074316;28;20128;-91
2023/11/14 12:30:17;;;;;;;1999.90;999.90;;;;;;;;;;5081421;28;20048;-87
2023/11/14 12:32:43;;;;;;;1999.90;999.90;;;;;;;;;;5084069;28;20071;-87
2023/11/14 12:35:10;;;;;;;1999.90;999.90;;;;;;;;;;5077193;28;20044;-87
2023/11/14 12:37:39;;;;;;;1999.90;999.90;;;;;;;;;;5075640;28;20112;-87
2023/11/14 12:40:09;;;;;;;1999.90;999.90;;;;;;;;;;5075121;28;20045;-86
2023/11/14 12:42:36;;;;;;;1999.90;999.90;;;;;;;;;;5069771;28;20059;-87
2023/11/14 12:45:07;;;;;;;1999.90;999.90;;;;;;;;;;5079948;28;20050;-88
2023/11/14 12:47:35;;;;;;;1999.90;999.90;;;;;;;;;;5060703;28;20080;-89
2023/11/14 12:50:02;;;;;;;1999.90;999.90;;;;;;;;;;5080072;28;20556;-88
2023/11/14 12:52:30;;;;;;;1999.90;999.90;;;;;;;;;;5061501;28;20059;-88
2023/11/14 12:55:00;;;;;;;1999.90;999.90;;;;;;;;;;5071885;28;20049;-88
2023/11/14 12:57:27;;;;;;;1999.90;999.90;;;;;;;;;;5076352;28;20049;-88
2023/11/14 12:59:55;;;;;;;1999.90;999.90;;;;;;;;;;5070412;28;20059;-90
2023/11/14 13:02:23;;;;;;;1999.90;999.90;;;;;;;;;;5062634;28;20052;-88
2023/11/14 13:04:50;;;;;;;1999.90;999.90;;;;;;;;;;5057414;28;20045;-90
2023/11/14 13:07:16;;;;;;;1999.90;999.90;;;;;;;;;;5055638;28;20078;-92
2023/11/14 13:09:43;;;;;;;1999.90;999.90;;;;;;;;;;5061992;28;20053;-88
2023/11/14 13:12:12;;;;;;;1999.90;999.90;;;;;;;;;;5055257;28;20045;-92
2023/11/14 13:14:39;;;;;;;1999.90;999.90;;;;;;;;;;5061025;28;20557;-87
2023/11/14 13:17:09;;;;;;;1999.90;999.90;;;;;;;;;;5057929;28;20055;-88
2023/11/14 13:19:37;;;;;;;1999.90;999.90;;;;;;;;;;5057374;28;20045;-87
2023/11/14 13:22:05;;;;;;;1999.90;999.90;;;;;;;;;;5056360;28;20398;-87
2023/11/14 13:24:32;;;;;;;1999.90;999.90;;;;;;;;;;5060175;28;20055;-86
2023/11/14 13:26:59;;;;;;;1999.90;999.90;;;;;;;;;;5061062;28;20053;-88
2023/11/14 13:29:27;;;;;;;1999.90;999.90;;;;;;;;;;5054489;28;20413;-88
2023/11/14 13:31:53;;;;;;;1999.90;999.90;;;;;;;;;;5057930;28;20386;-88
2023/11/14 13:34:20;;;;;;;1999.90;999.90;;;;;;;;;;5057035;28;20061;-86
2023/11/14 13:36:46;;;;;;;1999.90;999.90;;;;;;;;;;5058770;28;20055;-86
2023/11/14 13:39:14;;;;;;;1999.90;999.90;;;;;;;;;;5059054;28;20048;-87
2023/11/14 13:41:42;;;;;;;1999.90;999.90;;;;;;;;;;5057839;28;20047;-90
2023/11/14 13:44:08;;;;;;;1999.90;999.90;;;;;;;;;;5057794;28;20056;-91